sensor_id;sensor_type;location;lat;lon;timestamp;P1;durP1;ratioP1;P2;durP2;ratioP2
37367;SDS011;23240;43.210;27.910;2022-10-15T00:00:20;0.60;;;0.60;;
37367;SDS011;23240;43.210;27.910;2022-10-15T00:02:46;3.83;;;0.70;;
37367;SDS011;23240;43.210;27.910;2022-10-15T00:05:11;1.10;;;0.68;;
37367;SDS011;23240;43.210;27.910;2022-10-15T00:07:37;3.20;;;1.38;;
37367;SDS011;23240;43.210;27.910;2022-10-15T00:10:02;2.50;;;1.40;;
37367;SDS011;23240;43.210;27.910;2022-10-15T00:12:28;2.00;;;1.30;;
37367;SDS011;23240;43.210;27.910;2022-10-15T00:14:53;4.55;;;1.85;;
37367;SDS011;23240;43.210;27.910;2022-10-15T00:17:19;3.83;;;1.30;;
37367;SDS011;23240;43.210;27.910;2022-10-15T00:19:44;3.15;;;1.67;;
37367;SDS011;23240;43.210;27.910;2022-10-15T00:22:10;1.30;;;0.80;;
37367;SDS011;23240;43.210;27.910;2022-10-15T00:24:36;3.13;;;1.02;;
37367;SDS011;23240;43.210;27.910;2022-10-15T00:27:01;1.40;;;1.05;;
37367;SDS011;23240;43.210;27.910;2022-10-15T00:29:27;1.10;;;1.00;;
37367;SDS011;23240;43.210;27.910;2022-10-15T00:31:52;0.73;;;0.73;;
37367;SDS011;23240;43.210;27.910;2022-10-15T00:34:18;1.08;;;0.88;;
37367;SDS011;23240;43.210;27.910;2022-10-15T00:36:44;0.95;;;0.88;;
37367;SDS011;23240;43.210;27.910;2022-10-15T00:39:09;1.52;;;1.10;;
37367;SDS011;23240;43.210;27.910;2022-10-15T00:41:37;1.92;;;1.00;;
37367;SDS011;23240;43.210;27.910;2022-10-15T00:46:50;1.38;;;1.27;;
37367;SDS011;23240;43.210;27.910;2022-10-15T00:49:52;0.95;;;0.95;;
37367;SDS011;23240;43.210;27.910;2022-10-15T00:55:14;2.97;;;1.63;;
37367;SDS011;23240;43.210;27.910;2022-10-15T00:57:43;2.17;;;1.20;;
37367;SDS011;23240;43.210;27.910;2022-10-15T01:00:12;3.63;;;1.63;;
37367;SDS011;23240;43.210;27.910;2022-10-15T01:02:42;4.30;;;1.42;;
37367;SDS011;23240;43.210;27.910;2022-10-15T01:05:09;2.20;;;1.05;;
37367;SDS011;23240;43.210;27.910;2022-10-15T01:07:36;1.98;;;1.70;;
37367;SDS011;23240;43.210;27.910;2022-10-15T01:10:02;1.80;;;1.60;;
37367;SDS011;23240;43.210;27.910;2022-10-15T01:15:40;3.38;;;1.40;;
37367;SDS011;23240;43.210;27.910;2022-10-15T01:18:14;1.33;;;1.23;;
37367;SDS011;23240;43.210;27.910;2022-10-15T01:23:39;2.92;;;1.30;;
37367;SDS011;23240;43.210;27.910;2022-10-15T01:31:44;1.25;;;1.13;;
37367;SDS011;23240;43.210;27.910;2022-10-15T01:39:40;3.85;;;1.48;;
37367;SDS011;23240;43.210;27.910;2022-10-15T01:42:21;4.57;;;1.38;;
37367;SDS011;23240;43.210;27.910;2022-10-15T01:44:54;1.85;;;1.60;;
37367;SDS011;23240;43.210;27.910;2022-10-15T01:47:32;1.23;;;1.13;;
37367;SDS011;23240;43.210;27.910;2022-10-15T01:50:03;2.85;;;1.48;;
37367;SDS011;23240;43.210;27.910;2022-10-15T01:52:32;2.30;;;1.45;;
37367;SDS011;23240;43.210;27.910;2022-10-15T01:55:01;3.97;;;1.65;;
37367;SDS011;23240;43.210;27.910;2022-10-15T01:57:31;4.78;;;2.08;;
37367;SDS011;23240;43.210;27.910;2022-10-15T01:59:58;1.52;;;1.33;;
37367;SDS011;23240;43.210;27.910;2022-10-15T02:02:25;1.80;;;1.50;;
37367;SDS011;23240;43.210;27.910;2022-10-15T02:04:50;4.25;;;2.08;;
37367;SDS011;23240;43.210;27.910;2022-10-15T02:13:01;3.47;;;2.05;;
37367;SDS011;23240;43.210;27.910;2022-10-15T02:18:17;2.95;;;1.80;;
37367;SDS011;23240;43.210;27.910;2022-10-15T02:23:22;4.05;;;1.67;;
37367;SDS011;23240;43.210;27.910;2022-10-15T02:25:51;7.35;;;2.40;;
37367;SDS011;23240;43.210;27.910;2022-10-15T02:28:19;4.13;;;2.28;;
37367;SDS011;23240;43.210;27.910;2022-10-15T02:30:47;3.03;;;2.25;;
37367;SDS011;23240;43.210;27.910;2022-10-15T02:33:17;3.97;;;1.77;;
37367;SDS011;23240;43.210;27.910;2022-10-15T02:35:44;2.70;;;1.80;;
37367;SDS011;23240;43.210;27.910;2022-10-15T02:38:13;6.28;;;2.20;;
37367;SDS011;23240;43.210;27.910;2022-10-15T02:40:43;2.58;;;1.40;;
37367;SDS011;23240;43.210;27.910;2022-10-15T02:43:12;4.28;;;2.00;;
37367;SDS011;23240;43.210;27.910;2022-10-15T02:45:39;3.75;;;2.10;;
37367;SDS011;23240;43.210;27.910;2022-10-15T02:48:06;2.45;;;1.70;;
37367;SDS011;23240;43.210;27.910;2022-10-15T02:50:32;3.42;;;2.17;;
37367;SDS011;23240;43.210;27.910;2022-10-15T02:52:58;3.45;;;1.95;;
37367;SDS011;23240;43.210;27.910;2022-10-15T02:55:23;4.70;;;2.10;;
37367;SDS011;23240;43.210;27.910;2022-10-15T02:57:49;9.68;;;2.30;;
37367;SDS011;23240;43.210;27.910;2022-10-15T03:00:14;5.00;;;3.30;;
37367;SDS011;23240;43.210;27.910;2022-10-15T03:02:40;3.92;;;1.92;;
37367;SDS011;23240;43.210;27.910;2022-10-15T03:05:06;5.03;;;2.85;;
37367;SDS011;23240;43.210;27.910;2022-10-15T03:07:31;5.25;;;2.35;;
37367;SDS011;23240;43.210;27.910;2022-10-15T03:09:57;3.33;;;2.40;;
37367;SDS011;23240;43.210;27.910;2022-10-15T03:12:23;5.68;;;2.83;;
37367;SDS011;23240;43.210;27.910;2022-10-15T03:14:50;4.95;;;2.30;;
37367;SDS011;23240;43.210;27.910;2022-10-15T03:17:16;4.60;;;2.63;;
37367;SDS011;23240;43.210;27.910;2022-10-15T03:19:41;3.83;;;2.33;;
37367;SDS011;23240;43.210;27.910;2022-10-15T03:22:07;5.85;;;2.85;;
37367;SDS011;23240;43.210;27.910;2022-10-15T03:24:32;5.95;;;2.47;;
37367;SDS011;23240;43.210;27.910;2022-10-15T03:26:58;3.50;;;2.60;;
37367;SDS011;23240;43.210;27.910;2022-10-15T03:29:23;7.47;;;2.90;;
37367;SDS011;23240;43.210;27.910;2022-10-15T03:31:49;5.22;;;2.88;;
37367;SDS011;23240;43.210;27.910;2022-10-15T03:34:14;3.85;;;2.45;;
37367;SDS011;23240;43.210;27.910;2022-10-15T03:36:40;3.75;;;2.60;;
37367;SDS011;23240;43.210;27.910;2022-10-15T03:39:05;5.57;;;2.88;;
37367;SDS011;23240;43.210;27.910;2022-10-15T03:41:32;5.57;;;3.00;;
37367;SDS011;23240;43.210;27.910;2022-10-15T03:44:01;4.95;;;2.65;;
37367;SDS011;23240;43.210;27.910;2022-10-15T03:46:28;4.00;;;2.53;;
37367;SDS011;23240;43.210;27.910;2022-10-15T03:48:54;6.35;;;3.10;;
37367;SDS011;23240;43.210;27.910;2022-10-15T03:51:19;6.18;;;2.53;;
37367;SDS011;23240;43.210;27.910;2022-10-15T03:53:45;7.25;;;3.17;;
37367;SDS011;23240;43.210;27.910;2022-10-15T03:56:11;7.13;;;3.33;;
37367;SDS011;23240;43.210;27.910;2022-10-15T03:58:36;4.18;;;2.55;;
37367;SDS011;23240;43.210;27.910;2022-10-15T04:01:06;8.35;;;2.88;;
37367;SDS011;23240;43.210;27.910;2022-10-15T04:03:36;5.05;;;2.83;;
37367;SDS011;23240;43.210;27.910;2022-10-15T04:06:02;8.50;;;3.47;;
37367;SDS011;23240;43.210;27.910;2022-10-15T04:08:27;5.85;;;3.10;;
37367;SDS011;23240;43.210;27.910;2022-10-15T04:10:53;8.70;;;3.47;;
37367;SDS011;23240;43.210;27.910;2022-10-15T04:13:18;7.50;;;2.97;;
37367;SDS011;23240;43.210;27.910;2022-10-15T04:15:44;8.82;;;3.67;;
37367;SDS011;23240;43.210;27.910;2022-10-15T04:18:10;7.82;;;3.35;;
37367;SDS011;23240;43.210;27.910;2022-10-15T04:20:35;5.93;;;3.35;;
37367;SDS011;23240;43.210;27.910;2022-10-15T04:23:01;8.75;;;3.22;;
37367;SDS011;23240;43.210;27.910;2022-10-15T04:25:27;7.57;;;3.22;;
37367;SDS011;23240;43.210;27.910;2022-10-15T04:27:52;8.73;;;3.60;;
37367;SDS011;23240;43.210;27.910;2022-10-15T04:30:18;8.13;;;3.70;;
37367;SDS011;23240;43.210;27.910;2022-10-15T04:32:43;7.50;;;3.17;;
37367;SDS011;23240;43.210;27.910;2022-10-15T04:35:09;11.00;;;3.92;;
37367;SDS011;23240;43.210;27.910;2022-10-15T04:37:35;5.97;;;3.60;;
37367;SDS011;23240;43.210;27.910;2022-10-15T04:40:00;6.72;;;3.20;;
37367;SDS011;23240;43.210;27.910;2022-10-15T04:42:27;6.40;;;3.40;;
37367;SDS011;23240;43.210;27.910;2022-10-15T04:44:53;9.55;;;3.88;;
37367;SDS011;23240;43.210;27.910;2022-10-15T04:47:19;7.20;;;3.30;;
37367;SDS011;23240;43.210;27.910;2022-10-15T04:49:44;5.95;;;2.90;;
37367;SDS011;23240;43.210;27.910;2022-10-15T04:52:10;6.82;;;3.28;;
37367;SDS011;23240;43.210;27.910;2022-10-15T04:54:35;6.68;;;3.33;;
37367;SDS011;23240;43.210;27.910;2022-10-15T04:57:02;6.32;;;2.90;;
37367;SDS011;23240;43.210;27.910;2022-10-15T04:59:28;10.13;;;4.20;;
37367;SDS011;23240;43.210;27.910;2022-10-15T05:01:53;8.32;;;3.33;;
37367;SDS011;23240;43.210;27.910;2022-10-15T05:04:19;6.60;;;2.90;;
37367;SDS011;23240;43.210;27.910;2022-10-15T05:06:44;7.60;;;3.05;;
37367;SDS011;23240;43.210;27.910;2022-10-15T05:09:10;15.98;;;4.45;;
37367;SDS011;23240;43.210;27.910;2022-10-15T05:11:35;12.93;;;4.40;;
37367;SDS011;23240;43.210;27.910;2022-10-15T05:14:04;10.57;;;4.05;;
37367;SDS011;23240;43.210;27.910;2022-10-15T05:16:30;6.95;;;3.10;;
37367;SDS011;23240;43.210;27.910;2022-10-15T05:19:00;5.65;;;3.08;;
37367;SDS011;23240;43.210;27.910;2022-10-15T05:21:27;7.78;;;3.40;;
37367;SDS011;23240;43.210;27.910;2022-10-15T05:23:53;5.88;;;2.90;;
37367;SDS011;23240;43.210;27.910;2022-10-15T05:26:20;12.95;;;3.85;;
37367;SDS011;23240;43.210;27.910;2022-10-15T05:28:47;11.32;;;4.10;;
37367;SDS011;23240;43.210;27.910;2022-10-15T05:31:17;6.50;;;3.20;;
37367;SDS011;23240;43.210;27.910;2022-10-15T05:33:44;12.40;;;4.43;;
37367;SDS011;23240;43.210;27.910;2022-10-15T05:38:42;8.27;;;3.72;;
37367;SDS011;23240;43.210;27.910;2022-10-15T05:41:08;6.82;;;3.60;;
37367;SDS011;23240;43.210;27.910;2022-10-15T05:43:34;5.93;;;2.85;;
37367;SDS011;23240;43.210;27.910;2022-10-15T05:45:59;7.95;;;3.78;;
37367;SDS011;23240;43.210;27.910;2022-10-15T05:48:25;5.32;;;2.88;;
37367;SDS011;23240;43.210;27.910;2022-10-15T05:50:51;9.00;;;2.80;;
37367;SDS011;23240;43.210;27.910;2022-10-15T05:53:16;2.85;;;2.38;;
37367;SDS011;23240;43.210;27.910;2022-10-15T05:55:42;4.15;;;2.63;;
37367;SDS011;23240;43.210;27.910;2022-10-15T05:58:07;10.85;;;2.83;;
37367;SDS011;23240;43.210;27.910;2022-10-15T06:00:33;11.65;;;4.28;;
37367;SDS011;23240;43.210;27.910;2022-10-15T06:02:59;10.45;;;4.10;;
37367;SDS011;23240;43.210;27.910;2022-10-15T06:05:24;7.45;;;3.00;;
37367;SDS011;23240;43.210;27.910;2022-10-15T06:07:50;4.47;;;3.00;;
37367;SDS011;23240;43.210;27.910;2022-10-15T06:10:16;6.68;;;3.05;;
37367;SDS011;23240;43.210;27.910;2022-10-15T06:12:41;4.15;;;2.70;;
37367;SDS011;23240;43.210;27.910;2022-10-15T06:15:12;5.78;;;3.15;;
37367;SDS011;23240;43.210;27.910;2022-10-15T06:17:37;6.05;;;3.03;;
37367;SDS011;23240;43.210;27.910;2022-10-15T06:20:03;6.93;;;3.22;;
37367;SDS011;23240;43.210;27.910;2022-10-15T06:22:29;7.25;;;3.47;;
37367;SDS011;23240;43.210;27.910;2022-10-15T06:24:54;9.93;;;4.50;;
37367;SDS011;23240;43.210;27.910;2022-10-15T06:27:20;4.85;;;2.47;;
37367;SDS011;23240;43.210;27.910;2022-10-15T06:29:45;6.38;;;3.10;;
37367;SDS011;23240;43.210;27.910;2022-10-15T06:32:11;6.45;;;2.88;;
37367;SDS011;23240;43.210;27.910;2022-10-15T06:34:36;7.13;;;2.65;;
37367;SDS011;23240;43.210;27.910;2022-10-15T06:37:02;5.03;;;2.80;;
37367;SDS011;23240;43.210;27.910;2022-10-15T06:39:27;5.03;;;2.65;;
37367;SDS011;23240;43.210;27.910;2022-10-15T06:41:53;5.70;;;2.35;;
37367;SDS011;23240;43.210;27.910;2022-10-15T06:44:18;5.40;;;2.17;;
37367;SDS011;23240;43.210;27.910;2022-10-15T06:46:44;5.93;;;2.85;;
37367;SDS011;23240;43.210;27.910;2022-10-15T06:49:09;3.17;;;2.22;;
37367;SDS011;23240;43.210;27.910;2022-10-15T06:51:35;8.77;;;3.00;;
37367;SDS011;23240;43.210;27.910;2022-10-15T06:54:02;5.13;;;3.08;;
37367;SDS011;23240;43.210;27.910;2022-10-15T06:56:28;4.63;;;2.70;;
37367;SDS011;23240;43.210;27.910;2022-10-15T06:58:53;4.05;;;2.63;;
37367;SDS011;23240;43.210;27.910;2022-10-15T07:01:18;3.47;;;2.50;;
37367;SDS011;23240;43.210;27.910;2022-10-15T07:03:47;7.63;;;2.60;;
37367;SDS011;23240;43.210;27.910;2022-10-15T07:06:14;9.10;;;3.53;;
37367;SDS011;23240;43.210;27.910;2022-10-15T07:08:39;5.53;;;3.25;;
37367;SDS011;23240;43.210;27.910;2022-10-15T07:11:06;8.93;;;3.70;;
37367;SDS011;23240;43.210;27.910;2022-10-15T07:13:35;4.35;;;2.97;;
37367;SDS011;23240;43.210;27.910;2022-10-15T07:16:05;4.30;;;2.70;;
37367;SDS011;23240;43.210;27.910;2022-10-15T07:18:34;4.25;;;2.78;;
37367;SDS011;23240;43.210;27.910;2022-10-15T07:21:00;4.07;;;2.38;;
37367;SDS011;23240;43.210;27.910;2022-10-15T07:23:28;2.88;;;2.17;;
37367;SDS011;23240;43.210;27.910;2022-10-15T07:25:56;9.13;;;3.42;;
37367;SDS011;23240;43.210;27.910;2022-10-15T07:28:22;10.10;;;4.00;;
37367;SDS011;23240;43.210;27.910;2022-10-15T07:30:47;5.43;;;2.70;;
37367;SDS011;23240;43.210;27.910;2022-10-15T07:33:13;5.47;;;2.78;;
37367;SDS011;23240;43.210;27.910;2022-10-15T07:35:38;3.72;;;2.60;;
37367;SDS011;23240;43.210;27.910;2022-10-15T07:38:04;6.20;;;2.78;;
37367;SDS011;23240;43.210;27.910;2022-10-15T07:40:29;2.88;;;2.17;;
37367;SDS011;23240;43.210;27.910;2022-10-15T07:42:55;3.67;;;2.50;;
37367;SDS011;23240;43.210;27.910;2022-10-15T07:45:23;5.20;;;2.58;;
37367;SDS011;23240;43.210;27.910;2022-10-15T07:47:49;7.47;;;2.95;;
37367;SDS011;23240;43.210;27.910;2022-10-15T07:50:15;5.03;;;2.83;;
37367;SDS011;23240;43.210;27.910;2022-10-15T07:52:42;8.02;;;3.80;;
37367;SDS011;23240;43.210;27.910;2022-10-15T07:55:07;6.20;;;3.33;;
37367;SDS011;23240;43.210;27.910;2022-10-15T07:57:33;6.82;;;2.90;;
37367;SDS011;23240;43.210;27.910;2022-10-15T07:59:59;3.35;;;2.53;;
37367;SDS011;23240;43.210;27.910;2022-10-15T08:02:24;9.55;;;3.65;;
37367;SDS011;23240;43.210;27.910;2022-10-15T08:04:50;4.18;;;2.78;;
37367;SDS011;23240;43.210;27.910;2022-10-15T08:07:16;5.15;;;2.80;;
37367;SDS011;23240;43.210;27.910;2022-10-15T08:09:41;3.90;;;2.60;;
37367;SDS011;23240;43.210;27.910;2022-10-15T08:12:07;7.80;;;3.25;;
37367;SDS011;23240;43.210;27.910;2022-10-15T08:14:33;5.85;;;3.00;;
37367;SDS011;23240;43.210;27.910;2022-10-15T08:17:00;8.07;;;3.75;;
37367;SDS011;23240;43.210;27.910;2022-10-15T08:19:28;10.98;;;4.70;;
37367;SDS011;23240;43.210;27.910;2022-10-15T08:21:53;6.72;;;3.58;;
37367;SDS011;23240;43.210;27.910;2022-10-15T08:24:19;8.95;;;3.90;;
37367;SDS011;23240;43.210;27.910;2022-10-15T08:26:44;10.77;;;4.35;;
37367;SDS011;23240;43.210;27.910;2022-10-15T08:29:10;11.40;;;4.57;;
37367;SDS011;23240;43.210;27.910;2022-10-15T08:31:36;12.27;;;4.72;;
37367;SDS011;23240;43.210;27.910;2022-10-15T08:34:03;10.02;;;4.47;;
37367;SDS011;23240;43.210;27.910;2022-10-15T08:36:28;13.32;;;5.07;;
37367;SDS011;23240;43.210;27.910;2022-10-15T08:38:54;13.40;;;4.88;;
37367;SDS011;23240;43.210;27.910;2022-10-15T08:44:40;7.28;;;3.60;;
37367;SDS011;23240;43.210;27.910;2022-10-15T08:50:02;10.02;;;3.97;;
37367;SDS011;23240;43.210;27.910;2022-10-15T08:52:56;12.00;;;4.65;;
37367;SDS011;23240;43.210;27.910;2022-10-15T08:55:23;9.77;;;3.88;;
37367;SDS011;23240;43.210;27.910;2022-10-15T08:57:57;6.07;;;3.20;;
37367;SDS011;23240;43.210;27.910;2022-10-15T09:00:37;3.83;;;2.60;;
37367;SDS011;23240;43.210;27.910;2022-10-15T09:05:50;6.78;;;2.58;;
37367;SDS011;23240;43.210;27.910;2022-10-15T09:10:54;2.85;;;2.08;;
37367;SDS011;23240;43.210;27.910;2022-10-15T09:13:30;3.17;;;2.00;;
37367;SDS011;23240;43.210;27.910;2022-10-15T09:16:04;4.03;;;1.93;;
37367;SDS011;23240;43.210;27.910;2022-10-15T09:18:36;5.05;;;2.85;;
37367;SDS011;23240;43.210;27.910;2022-10-15T09:21:03;7.72;;;2.42;;
37367;SDS011;23240;43.210;27.910;2022-10-15T09:23:31;4.10;;;2.03;;
37367;SDS011;23240;43.210;27.910;2022-10-15T09:31:13;1.95;;;1.73;;
37367;SDS011;23240;43.210;27.910;2022-10-15T09:33:46;3.10;;;1.98;;
37367;SDS011;23240;43.210;27.910;2022-10-15T09:36:18;2.15;;;1.75;;
37367;SDS011;23240;43.210;27.910;2022-10-15T09:39:16;8.00;;;2.28;;
37367;SDS011;23240;43.210;27.910;2022-10-15T09:44:42;1.85;;;1.73;;
37367;SDS011;23240;43.210;27.910;2022-10-15T09:49:49;2.05;;;1.60;;
37367;SDS011;23240;43.210;27.910;2022-10-15T09:52:38;1.95;;;1.83;;
37367;SDS011;23240;43.210;27.910;2022-10-15T09:55:29;2.72;;;1.70;;
37367;SDS011;23240;43.210;27.910;2022-10-15T10:00:51;2.35;;;1.92;;
37367;SDS011;23240;43.210;27.910;2022-10-15T10:03:21;2.22;;;1.65;;
37367;SDS011;23240;43.210;27.910;2022-10-15T10:05:48;3.38;;;2.08;;
37367;SDS011;23240;43.210;27.910;2022-10-15T10:10:40;4.10;;;1.92;;
37367;SDS011;23240;43.210;27.910;2022-10-15T10:13:17;3.53;;;2.13;;
37367;SDS011;23240;43.210;27.910;2022-10-15T10:15:51;3.00;;;2.00;;
37367;SDS011;23240;43.210;27.910;2022-10-15T10:18:22;1.42;;;1.33;;
37367;SDS011;23240;43.210;27.910;2022-10-15T10:23:47;2.53;;;1.42;;
37367;SDS011;23240;43.210;27.910;2022-10-15T10:26:13;1.63;;;1.52;;
37367;SDS011;23240;43.210;27.910;2022-10-15T10:28:42;1.65;;;1.55;;
37367;SDS011;23240;43.210;27.910;2022-10-15T10:31:14;5.55;;;2.30;;
37367;SDS011;23240;43.210;27.910;2022-10-15T10:41:48;4.05;;;2.15;;
37367;SDS011;23240;43.210;27.910;2022-10-15T10:44:26;4.95;;;2.42;;
37367;SDS011;23240;43.210;27.910;2022-10-15T10:47:13;3.67;;;1.98;;
37367;SDS011;23240;43.210;27.910;2022-10-15T10:49:44;1.75;;;1.65;;
37367;SDS011;23240;43.210;27.910;2022-10-15T10:57:53;3.65;;;2.15;;
37367;SDS011;23240;43.210;27.910;2022-10-15T11:00:23;5.65;;;1.88;;
37367;SDS011;23240;43.210;27.910;2022-10-15T11:02:55;5.18;;;1.67;;
37367;SDS011;23240;43.210;27.910;2022-10-15T11:05:24;1.88;;;1.58;;
37367;SDS011;23240;43.210;27.910;2022-10-15T11:26:30;4.55;;;2.50;;
37367;SDS011;23240;43.210;27.910;2022-10-15T11:29:17;2.00;;;1.80;;
37367;SDS011;23240;43.210;27.910;2022-10-15T11:40:10;2.10;;;1.88;;
37367;SDS011;23240;43.210;27.910;2022-10-15T11:48:17;1.30;;;1.13;;
37367;SDS011;23240;43.210;27.910;2022-10-15T11:50:59;2.63;;;1.70;;
37367;SDS011;23240;43.210;27.910;2022-10-15T11:56:29;2.63;;;1.65;;
37367;SDS011;23240;43.210;27.910;2022-10-15T11:59:03;4.07;;;1.80;;
37367;SDS011;23240;43.210;27.910;2022-10-15T12:04:26;3.75;;;1.80;;
37367;SDS011;23240;43.210;27.910;2022-10-15T12:07:03;1.92;;;1.65;;
37367;SDS011;23240;43.210;27.910;2022-10-15T12:09:35;2.15;;;1.70;;
37367;SDS011;23240;43.210;27.910;2022-10-15T12:17:24;4.03;;;1.90;;
37367;SDS011;23240;43.210;27.910;2022-10-15T12:20:05;3.63;;;2.47;;
37367;SDS011;23240;43.210;27.910;2022-10-15T12:22:38;5.20;;;2.90;;
37367;SDS011;23240;43.210;27.910;2022-10-15T12:28:00;4.90;;;2.10;;
37367;SDS011;23240;43.210;27.910;2022-10-15T12:30:29;4.75;;;2.42;;
37367;SDS011;23240;43.210;27.910;2022-10-15T12:32:59;1.80;;;1.70;;
37367;SDS011;23240;43.210;27.910;2022-10-15T12:40:43;2.45;;;1.77;;
37367;SDS011;23240;43.210;27.910;2022-10-15T12:43:13;3.40;;;1.88;;
37367;SDS011;23240;43.210;27.910;2022-10-15T12:45:48;3.55;;;2.08;;
37367;SDS011;23240;43.210;27.910;2022-10-15T12:48:17;8.45;;;2.25;;
37367;SDS011;23240;43.210;27.910;2022-10-15T12:50:46;10.50;;;3.97;;
37367;SDS011;23240;43.210;27.910;2022-10-15T12:58:35;3.00;;;2.00;;
37367;SDS011;23240;43.210;27.910;2022-10-15T13:11:39;5.50;;;2.22;;
37367;SDS011;23240;43.210;27.910;2022-10-15T13:16:51;5.70;;;2.97;;
37367;SDS011;23240;43.210;27.910;2022-10-15T13:19:21;4.93;;;2.45;;
37367;SDS011;23240;43.210;27.910;2022-10-15T13:22:06;3.03;;;2.30;;
37367;SDS011;23240;43.210;27.910;2022-10-15T13:24:48;3.45;;;2.28;;
37367;SDS011;23240;43.210;27.910;2022-10-15T13:27:14;4.60;;;2.38;;
37367;SDS011;23240;43.210;27.910;2022-10-15T13:29:56;2.28;;;1.92;;
37367;SDS011;23240;43.210;27.910;2022-10-15T13:32:26;3.72;;;2.03;;
37367;SDS011;23240;43.210;27.910;2022-10-15T13:34:55;4.00;;;1.83;;
37367;SDS011;23240;43.210;27.910;2022-10-15T13:37:23;7.13;;;2.55;;
37367;SDS011;23240;43.210;27.910;2022-10-15T13:40:00;3.33;;;1.80;;
37367;SDS011;23240;43.210;27.910;2022-10-15T13:42:27;3.60;;;1.70;;
37367;SDS011;23240;43.210;27.910;2022-10-15T13:44:57;3.42;;;2.00;;
37367;SDS011;23240;43.210;27.910;2022-10-15T13:47:40;8.23;;;2.35;;
37367;SDS011;23240;43.210;27.910;2022-10-15T13:50:32;3.97;;;2.00;;
37367;SDS011;23240;43.210;27.910;2022-10-15T13:55:35;6.13;;;2.50;;
37367;SDS011;23240;43.210;27.910;2022-10-15T13:58:17;4.78;;;2.40;;
37367;SDS011;23240;43.210;27.910;2022-10-15T14:03:36;3.67;;;2.35;;
37367;SDS011;23240;43.210;27.910;2022-10-15T14:06:23;3.00;;;2.10;;
37367;SDS011;23240;43.210;27.910;2022-10-15T14:08:51;7.28;;;2.67;;
37367;SDS011;23240;43.210;27.910;2022-10-15T14:11:35;3.95;;;2.17;;
37367;SDS011;23240;43.210;27.910;2022-10-15T14:14:03;3.83;;;2.00;;
37367;SDS011;23240;43.210;27.910;2022-10-15T14:16:48;5.22;;;2.28;;
37367;SDS011;23240;43.210;27.910;2022-10-15T14:19:18;2.80;;;1.88;;
37367;SDS011;23240;43.210;27.910;2022-10-15T14:21:51;2.78;;;1.67;;
37367;SDS011;23240;43.210;27.910;2022-10-15T14:24:27;3.05;;;1.98;;
37367;SDS011;23240;43.210;27.910;2022-10-15T14:29:46;3.20;;;1.98;;
37367;SDS011;23240;43.210;27.910;2022-10-15T14:32:21;2.45;;;1.75;;
37367;SDS011;23240;43.210;27.910;2022-10-15T14:34:54;2.05;;;1.88;;
37367;SDS011;23240;43.210;27.910;2022-10-15T14:42:33;14.02;;;4.60;;
37367;SDS011;23240;43.210;27.910;2022-10-15T14:48:09;4.43;;;2.15;;
37367;SDS011;23240;43.210;27.910;2022-10-15T14:50:41;3.67;;;2.15;;
37367;SDS011;23240;43.210;27.910;2022-10-15T14:53:09;4.95;;;2.10;;
37367;SDS011;23240;43.210;27.910;2022-10-15T14:55:41;4.05;;;2.70;;
37367;SDS011;23240;43.210;27.910;2022-10-15T14:58:15;9.98;;;4.07;;
37367;SDS011;23240;43.210;27.910;2022-10-15T15:00:44;8.27;;;3.40;;
37367;SDS011;23240;43.210;27.910;2022-10-15T15:03:14;4.47;;;2.20;;
37367;SDS011;23240;43.210;27.910;2022-10-15T15:05:49;6.57;;;3.17;;
37367;SDS011;23240;43.210;27.910;2022-10-15T15:08:17;2.33;;;2.05;;
37367;SDS011;23240;43.210;27.910;2022-10-15T15:10:42;6.13;;;3.05;;
37367;SDS011;23240;43.210;27.910;2022-10-15T15:13:25;7.80;;;2.28;;
37367;SDS011;23240;43.210;27.910;2022-10-15T15:15:52;1.95;;;1.77;;
37367;SDS011;23240;43.210;27.910;2022-10-15T15:18:18;3.58;;;2.53;;
37367;SDS011;23240;43.210;27.910;2022-10-15T15:20:45;5.07;;;2.03;;
37367;SDS011;23240;43.210;27.910;2022-10-15T15:23:23;4.93;;;2.72;;
37367;SDS011;23240;43.210;27.910;2022-10-15T15:25:51;2.72;;;1.83;;
37367;SDS011;23240;43.210;27.910;2022-10-15T15:28:18;6.43;;;2.17;;
37367;SDS011;23240;43.210;27.910;2022-10-15T15:30:46;5.80;;;2.17;;
37367;SDS011;23240;43.210;27.910;2022-10-15T15:33:19;2.92;;;2.28;;
37367;SDS011;23240;43.210;27.910;2022-10-15T15:38:20;2.85;;;2.10;;
37367;SDS011;23240;43.210;27.910;2022-10-15T15:41:12;4.15;;;2.05;;
37367;SDS011;23240;43.210;27.910;2022-10-15T15:43:42;4.10;;;2.30;;
37367;SDS011;23240;43.210;27.910;2022-10-15T15:46:08;3.35;;;2.22;;
37367;SDS011;23240;43.210;27.910;2022-10-15T15:48:34;5.93;;;2.42;;
37367;SDS011;23240;43.210;27.910;2022-10-15T15:51:04;4.97;;;2.60;;
37367;SDS011;23240;43.210;27.910;2022-10-15T15:53:44;5.80;;;2.85;;
37367;SDS011;23240;43.210;27.910;2022-10-15T15:56:10;5.90;;;2.75;;
37367;SDS011;23240;43.210;27.910;2022-10-15T15:58:35;2.35;;;2.05;;
37367;SDS011;23240;43.210;27.910;2022-10-15T16:01:01;3.40;;;2.25;;
37367;SDS011;23240;43.210;27.910;2022-10-15T16:03:26;4.18;;;2.22;;
37367;SDS011;23240;43.210;27.910;2022-10-15T16:05:52;2.90;;;2.03;;
37367;SDS011;23240;43.210;27.910;2022-10-15T16:08:17;7.18;;;2.63;;
37367;SDS011;23240;43.210;27.910;2022-10-15T16:10:43;3.33;;;1.90;;
37367;SDS011;23240;43.210;27.910;2022-10-15T16:13:09;4.32;;;2.38;;
37367;SDS011;23240;43.210;27.910;2022-10-15T16:15:35;2.33;;;2.00;;
37367;SDS011;23240;43.210;27.910;2022-10-15T16:18:00;4.47;;;2.20;;
37367;SDS011;23240;43.210;27.910;2022-10-15T16:20:26;3.00;;;2.05;;
37367;SDS011;23240;43.210;27.910;2022-10-15T16:22:51;5.22;;;2.20;;
37367;SDS011;23240;43.210;27.910;2022-10-15T16:25:17;3.83;;;2.25;;
37367;SDS011;23240;43.210;27.910;2022-10-15T16:27:43;4.38;;;2.80;;
37367;SDS011;23240;43.210;27.910;2022-10-15T16:30:12;5.97;;;3.05;;
37367;SDS011;23240;43.210;27.910;2022-10-15T16:32:39;4.68;;;2.70;;
37367;SDS011;23240;43.210;27.910;2022-10-15T16:35:04;3.75;;;2.15;;
37367;SDS011;23240;43.210;27.910;2022-10-15T16:37:30;3.67;;;2.47;;
37367;SDS011;23240;43.210;27.910;2022-10-15T16:39:56;5.45;;;2.30;;
37367;SDS011;23240;43.210;27.910;2022-10-15T16:42:21;3.72;;;2.22;;
37367;SDS011;23240;43.210;27.910;2022-10-15T16:44:47;2.30;;;2.08;;
37367;SDS011;23240;43.210;27.910;2022-10-15T16:47:12;2.70;;;1.90;;
37367;SDS011;23240;43.210;27.910;2022-10-15T16:49:38;5.30;;;2.45;;
37367;SDS011;23240;43.210;27.910;2022-10-15T16:52:03;2.58;;;1.95;;
37367;SDS011;23240;43.210;27.910;2022-10-15T16:54:29;2.58;;;1.85;;
37367;SDS011;23240;43.210;27.910;2022-10-15T16:56:54;2.30;;;1.92;;
37367;SDS011;23240;43.210;27.910;2022-10-15T16:59:20;3.42;;;1.58;;
37367;SDS011;23240;43.210;27.910;2022-10-15T17:01:45;13.65;;;4.57;;
37367;SDS011;23240;43.210;27.910;2022-10-15T17:04:11;6.20;;;3.08;;
37367;SDS011;23240;43.210;27.910;2022-10-15T17:06:36;6.47;;;2.65;;
37367;SDS011;23240;43.210;27.910;2022-10-15T17:09:02;2.00;;;1.60;;
37367;SDS011;23240;43.210;27.910;2022-10-15T17:13:59;3.05;;;1.85;;
37367;SDS011;23240;43.210;27.910;2022-10-15T17:16:31;6.03;;;2.50;;
37367;SDS011;23240;43.210;27.910;2022-10-15T17:18:58;16.42;;;2.58;;
37367;SDS011;23240;43.210;27.910;2022-10-15T17:21:25;4.38;;;2.08;;
37367;SDS011;23240;43.210;27.910;2022-10-15T17:23:53;2.47;;;1.92;;
37367;SDS011;23240;43.210;27.910;2022-10-15T17:26:21;13.57;;;1.92;;
37367;SDS011;23240;43.210;27.910;2022-10-15T17:28:48;4.50;;;2.10;;
37367;SDS011;23240;43.210;27.910;2022-10-15T17:31:16;2.70;;;2.08;;
37367;SDS011;23240;43.210;27.910;2022-10-15T17:33:44;3.25;;;2.00;;